sensor_id;sensor_type;location;lat;lon;timestamp;temperature;humidity
7676;DHT22;3880;51.464;-2.566;2022-10-16T00:01:30;12.80;99.90
7676;DHT22;3880;51.464;-2.566;2022-10-16T00:03:59;12.90;99.90
7676;DHT22;3880;51.464;-2.566;2022-10-16T00:06:27;12.80;99.90
7676;DHT22;3880;51.464;-2.566;2022-10-16T00:08:55;12.90;99.90
7676;DHT22;3880;51.464;-2.566;2022-10-16T00:11:25;12.90;99.90
7676;DHT22;3880;51.464;-2.566;2022-10-16T00:13:55;12.80;99.90
7676;DHT22;3880;51.464;-2.566;2022-10-16T00:16:23;12.80;99.90
7676;DHT22;3880;51.464;-2.566;2022-10-16T00:18:50;12.70;99.90
7676;DHT22;3880;51.464;-2.566;2022-10-16T00:21:19;12.80;99.90
7676;DHT22;3880;51.464;-2.566;2022-10-16T00:23:49;12.70;99.90
7676;DHT22;3880;51.464;-2.566;2022-10-16T00:26:17;12.70;99.90
7676;DHT22;3880;51.464;-2.566;2022-10-16T00:28:47;12.70;99.90
7676;DHT22;3880;51.464;-2.566;2022-10-16T00:31:15;12.70;99.90
7676;DHT22;3880;51.464;-2.566;2022-10-16T00:33:43;12.70;99.90
7676;DHT22;3880;51.464;-2.566;2022-10-16T00:36:13;12.60;99.90
7676;DHT22;3880;51.464;-2.566;2022-10-16T00:38:42;12.60;99.90
7676;DHT22;3880;51.464;-2.566;2022-10-16T00:41:15;12.60;99.90
7676;DHT22;3880;51.464;-2.566;2022-10-16T00:43:56;12.70;99.90
7676;DHT22;3880;51.464;-2.566;2022-10-16T00:46:38;12.70;99.90
7676;DHT22;3880;51.464;-2.566;2022-10-16T00:51:54;12.70;99.90
7676;DHT22;3880;51.464;-2.566;2022-10-16T00:54:34;12.70;99.90
7676;DHT22;3880;51.464;-2.566;2022-10-16T00:57:24;12.70;99.90
7676;DHT22;3880;51.464;-2.566;2022-10-16T00:59:53;12.60;99.90
7676;DHT22;3880;51.464;-2.566;2022-10-16T01:02:20;12.60;99.90
7676;DHT22;3880;51.464;-2.566;2022-10-16T01:04:50;12.60;99.90
7676;DHT22;3880;51.464;-2.566;2022-10-16T01:07:28;12.60;99.90
7676;DHT22;3880;51.464;-2.566;2022-10-16T01:10:06;12.60;99.90
7676;DHT22;3880;51.464;-2.566;2022-10-16T01:12:41;12.50;99.90
7676;DHT22;3880;51.464;-2.566;2022-10-16T01:15:17;12.50;99.90
7676;DHT22;3880;51.464;-2.566;2022-10-16T01:17:53;12.50;99.90
7676;DHT22;3880;51.464;-2.566;2022-10-16T01:20:27;12.40;99.90
7676;DHT22;3880;51.464;-2.566;2022-10-16T01:23:07;12.50;99.90
7676;DHT22;3880;51.464;-2.566;2022-10-16T01:26:10;12.40;99.90
7676;DHT22;3880;51.464;-2.566;2022-10-16T01:28:44;12.30;99.90
7676;DHT22;3880;51.464;-2.566;2022-10-16T01:31:16;12.30;99.90
7676;DHT22;3880;51.464;-2.566;2022-10-16T01:33:47;12.20;99.90
7676;DHT22;3880;51.464;-2.566;2022-10-16T01:36:23;12.30;99.90
7676;DHT22;3880;51.464;-2.566;2022-10-16T01:38:53;12.30;99.90
7676;DHT22;3880;51.464;-2.566;2022-10-16T01:41:26;12.20;99.90
7676;DHT22;3880;51.464;-2.566;2022-10-16T01:44:01;12.20;99.90
7676;DHT22;3880;51.464;-2.566;2022-10-16T01:46:31;12.20;99.90
7676;DHT22;3880;51.464;-2.566;2022-10-16T01:49:00;12.20;99.90
7676;DHT22;3880;51.464;-2.566;2022-10-16T01:51:29;12.20;99.90
7676;DHT22;3880;51.464;-2.566;2022-10-16T01:53:59;12.10;99.90
7676;DHT22;3880;51.464;-2.566;2022-10-16T01:56:28;12.10;99.90
7676;DHT22;3880;51.464;-2.566;2022-10-16T01:58:59;12.10;99.90
7676;DHT22;3880;51.464;-2.566;2022-10-16T02:01:29;12.00;99.90
7676;DHT22;3880;51.464;-2.566;2022-10-16T02:03:59;12.00;99.90
7676;DHT22;3880;51.464;-2.566;2022-10-16T02:06:28;12.00;99.90
7676;DHT22;3880;51.464;-2.566;2022-10-16T02:08:55;12.00;99.90
7676;DHT22;3880;51.464;-2.566;2022-10-16T02:11:22;11.90;99.90
7676;DHT22;3880;51.464;-2.566;2022-10-16T02:13:55;11.90;99.90
7676;DHT22;3880;51.464;-2.566;2022-10-16T02:16:33;11.90;99.90
7676;DHT22;3880;51.464;-2.566;2022-10-16T02:19:00;11.90;99.90
7676;DHT22;3880;51.464;-2.566;2022-10-16T02:21:31;11.90;99.90
7676;DHT22;3880;51.464;-2.566;2022-10-16T02:24:03;11.90;99.90
7676;DHT22;3880;51.464;-2.566;2022-10-16T02:26:37;11.90;99.90
7676;DHT22;3880;51.464;-2.566;2022-10-16T02:29:10;11.90;99.90
7676;DHT22;3880;51.464;-2.566;2022-10-16T02:31:43;11.90;99.90
7676;DHT22;3880;51.464;-2.566;2022-10-16T02:34:14;11.90;99.90
7676;DHT22;3880;51.464;-2.566;2022-10-16T02:36:57;11.90;99.90
7676;DHT22;3880;51.464;-2.566;2022-10-16T02:39:26;11.90;99.90
7676;DHT22;3880;51.464;-2.566;2022-10-16T02:42:00;11.80;99.90
7676;DHT22;3880;51.464;-2.566;2022-10-16T02:44:28;11.80;99.90
7676;DHT22;3880;51.464;-2.566;2022-10-16T02:46:59;11.80;99.90
7676;DHT22;3880;51.464;-2.566;2022-10-16T02:49:29;11.80;99.90
7676;DHT22;3880;51.464;-2.566;2022-10-16T02:51:56;11.80;99.90
7676;DHT22;3880;51.464;-2.566;2022-10-16T02:54:26;11.80;99.90
7676;DHT22;3880;51.464;-2.566;2022-10-16T02:56:56;11.80;99.90
7676;DHT22;3880;51.464;-2.566;2022-10-16T02:59:27;11.70;99.90
7676;DHT22;3880;51.464;-2.566;2022-10-16T03:01:56;11.80;99.90
7676;DHT22;3880;51.464;-2.566;2022-10-16T03:04:25;11.80;99.90
7676;DHT22;3880;51.464;-2.566;2022-10-16T03:06:52;11.80;99.90
7676;DHT22;3880;51.464;-2.566;2022-10-16T03:09:19;11.70;99.90
7676;DHT22;3880;51.464;-2.566;2022-10-16T03:11:46;11.70;99.90
7676;DHT22;3880;51.464;-2.566;2022-10-16T03:14:14;11.60;99.90
7676;DHT22;3880;51.464;-2.566;2022-10-16T03:16:41;11.80;99.90
7676;DHT22;3880;51.464;-2.566;2022-10-16T03:19:08;11.70;99.90
7676;DHT22;3880;51.464;-2.566;2022-10-16T03:21:36;11.70;99.90
7676;DHT22;3880;51.464;-2.566;2022-10-16T03:24:04;11.70;99.90
7676;DHT22;3880;51.464;-2.566;2022-10-16T03:26:31;11.70;99.90
7676;DHT22;3880;51.464;-2.566;2022-10-16T03:28:58;11.70;99.90
7676;DHT22;3880;51.464;-2.566;2022-10-16T03:31:25;11.70;99.90
7676;DHT22;3880;51.464;-2.566;2022-10-16T03:33:53;11.60;99.90
7676;DHT22;3880;51.464;-2.566;2022-10-16T03:36:20;11.70;99.90
7676;DHT22;3880;51.464;-2.566;2022-10-16T03:38:48;11.60;99.90
7676;DHT22;3880;51.464;-2.566;2022-10-16T03:41:16;11.70;99.90
7676;DHT22;3880;51.464;-2.566;2022-10-16T03:43:43;11.70;99.90
7676;DHT22;3880;51.464;-2.566;2022-10-16T03:46:10;11.50;99.90
7676;DHT22;3880;51.464;-2.566;2022-10-16T03:48:37;11.40;99.90
7676;DHT22;3880;51.464;-2.566;2022-10-16T03:51:05;11.30;99.90
7676;DHT22;3880;51.464;-2.566;2022-10-16T03:53:32;11.20;99.90
7676;DHT22;3880;51.464;-2.566;2022-10-16T03:56:01;11.10;99.90
7676;DHT22;3880;51.464;-2.566;2022-10-16T03:58:29;11.10;99.90
7676;DHT22;3880;51.464;-2.566;2022-10-16T04:00:57;11.00;99.90
7676;DHT22;3880;51.464;-2.566;2022-10-16T04:03:25;10.90;99.90
7676;DHT22;3880;51.464;-2.566;2022-10-16T04:05:52;10.90;99.90
7676;DHT22;3880;51.464;-2.566;2022-10-16T04:08:20;10.80;99.90
7676;DHT22;3880;51.464;-2.566;2022-10-16T04:10:50;10.80;99.90
7676;DHT22;3880;51.464;-2.566;2022-10-16T04:13:20;10.80;99.90
7676;DHT22;3880;51.464;-2.566;2022-10-16T04:15:47;10.70;99.90
7676;DHT22;3880;51.464;-2.566;2022-10-16T04:18:15;10.60;99.90
7676;DHT22;3880;51.464;-2.566;2022-10-16T04:20:42;10.60;99.90
7676;DHT22;3880;51.464;-2.566;2022-10-16T04:23:09;10.60;99.90
7676;DHT22;3880;51.464;-2.566;2022-10-16T04:25:36;10.50;99.90
7676;DHT22;3880;51.464;-2.566;2022-10-16T04:28:04;10.60;99.90
7676;DHT22;3880;51.464;-2.566;2022-10-16T04:30:32;10.50;99.90
7676;DHT22;3880;51.464;-2.566;2022-10-16T04:33:00;10.50;99.90
7676;DHT22;3880;51.464;-2.566;2022-10-16T04:35:28;10.50;99.90
7676;DHT22;3880;51.464;-2.566;2022-10-16T04:37:57;10.40;99.90
7676;DHT22;3880;51.464;-2.566;2022-10-16T04:40:25;10.30;99.90
7676;DHT22;3880;51.464;-2.566;2022-10-16T04:42:52;10.40;99.90
7676;DHT22;3880;51.464;-2.566;2022-10-16T04:45:20;10.40;99.90
7676;DHT22;3880;51.464;-2.566;2022-10-16T04:47:51;10.40;99.90
7676;DHT22;3880;51.464;-2.566;2022-10-16T04:50:19;10.40;99.90
7676;DHT22;3880;51.464;-2.566;2022-10-16T04:52:48;10.40;99.90
7676;DHT22;3880;51.464;-2.566;2022-10-16T04:55:16;10.60;99.90
7676;DHT22;3880;51.464;-2.566;2022-10-16T04:57:51;10.70;99.90
7676;DHT22;3880;51.464;-2.566;2022-10-16T05:00:21;10.80;99.90
7676;DHT22;3880;51.464;-2.566;2022-10-16T05:03:00;10.80;99.90
7676;DHT22;3880;51.464;-2.566;2022-10-16T05:05:36;11.00;99.90
7676;DHT22;3880;51.464;-2.566;2022-10-16T05:08:16;11.00;99.90
7676;DHT22;3880;51.464;-2.566;2022-10-16T05:10:53;11.00;99.90
7676;DHT22;3880;51.464;-2.566;2022-10-16T05:13:23;11.00;99.90
7676;DHT22;3880;51.464;-2.566;2022-10-16T05:15:55;11.00;99.90
7676;DHT22;3880;51.464;-2.566;2022-10-16T05:18:39;10.90;99.90
7676;DHT22;3880;51.464;-2.566;2022-10-16T05:21:17;11.00;99.90
7676;DHT22;3880;51.464;-2.566;2022-10-16T05:23:59;10.90;99.90
7676;DHT22;3880;51.464;-2.566;2022-10-16T05:26:41;11.00;99.90
7676;DHT22;3880;51.464;-2.566;2022-10-16T05:29:27;10.90;99.90
7676;DHT22;3880;51.464;-2.566;2022-10-16T05:32:08;10.70;99.90
7676;DHT22;3880;51.464;-2.566;2022-10-16T05:34:56;11.00;99.90
7676;DHT22;3880;51.464;-2.566;2022-10-16T05:40:59;10.90;99.90
7676;DHT22;3880;51.464;-2.566;2022-10-16T05:43:31;10.90;99.90
7676;DHT22;3880;51.464;-2.566;2022-10-16T05:46:07;10.90;99.90
7676;DHT22;3880;51.464;-2.566;2022-10-16T05:48:41;10.90;99.90
7676;DHT22;3880;51.464;-2.566;2022-10-16T05:51:12;10.80;99.90
7676;DHT22;3880;51.464;-2.566;2022-10-16T05:53:40;10.80;99.90
7676;DHT22;3880;51.464;-2.566;2022-10-16T05:56:10;10.70;99.90
7676;DHT22;3880;51.464;-2.566;2022-10-16T05:58:38;10.80;99.90
7676;DHT22;3880;51.464;-2.566;2022-10-16T06:01:09;10.80;99.90
7676;DHT22;3880;51.464;-2.566;2022-10-16T06:03:37;10.80;99.90
7676;DHT22;3880;51.464;-2.566;2022-10-16T06:06:13;10.70;99.90
7676;DHT22;3880;51.464;-2.566;2022-10-16T06:08:42;10.70;99.90
7676;DHT22;3880;51.464;-2.566;2022-10-16T06:11:12;10.70;99.90
7676;DHT22;3880;51.464;-2.566;2022-10-16T06:13:43;10.70;99.90
7676;DHT22;3880;51.464;-2.566;2022-10-16T06:16:12;10.80;99.90
7676;DHT22;3880;51.464;-2.566;2022-10-16T06:18:40;10.90;99.90
7676;DHT22;3880;51.464;-2.566;2022-10-16T06:21:14;10.90;99.90
7676;DHT22;3880;51.464;-2.566;2022-10-16T06:23:43;11.00;99.90
7676;DHT22;3880;51.464;-2.566;2022-10-16T06:26:16;10.90;99.90
7676;DHT22;3880;51.464;-2.566;2022-10-16T06:28:47;10.90;99.90
7676;DHT22;3880;51.464;-2.566;2022-10-16T06:31:18;10.70;99.90
7676;DHT22;3880;51.464;-2.566;2022-10-16T06:33:50;10.70;99.90
7676;DHT22;3880;51.464;-2.566;2022-10-16T06:36:20;10.70;99.90
7676;DHT22;3880;51.464;-2.566;2022-10-16T06:38:49;10.90;99.90
7676;DHT22;3880;51.464;-2.566;2022-10-16T06:41:18;10.70;99.90
7676;DHT22;3880;51.464;-2.566;2022-10-16T06:43:50;10.70;99.90
7676;DHT22;3880;51.464;-2.566;2022-10-16T06:46:23;10.70;99.90
7676;DHT22;3880;51.464;-2.566;2022-10-16T06:48:51;10.60;99.90
7676;DHT22;3880;51.464;-2.566;2022-10-16T06:51:25;10.70;99.90
7676;DHT22;3880;51.464;-2.566;2022-10-16T06:54:00;10.60;99.90
7676;DHT22;3880;51.464;-2.566;2022-10-16T06:56:28;10.60;99.90
7676;DHT22;3880;51.464;-2.566;2022-10-16T06:58:56;10.60;99.90
7676;DHT22;3880;51.464;-2.566;2022-10-16T07:01:25;10.70;99.90
7676;DHT22;3880;51.464;-2.566;2022-10-16T07:03:53;10.60;99.90
7676;DHT22;3880;51.464;-2.566;2022-10-16T07:06:42;10.60;99.90
7676;DHT22;3880;51.464;-2.566;2022-10-16T07:09:15;10.60;99.90
7676;DHT22;3880;51.464;-2.566;2022-10-16T07:11:43;10.60;99.90
7676;DHT22;3880;51.464;-2.566;2022-10-16T07:14:18;10.60;99.90
7676;DHT22;3880;51.464;-2.566;2022-10-16T07:16:46;10.60;99.90
7676;DHT22;3880;51.464;-2.566;2022-10-16T07:19:19;10.70;99.90
7676;DHT22;3880;51.464;-2.566;2022-10-16T07:21:52;10.70;99.90
7676;DHT22;3880;51.464;-2.566;2022-10-16T07:24:36;10.60;99.90
7676;DHT22;3880;51.464;-2.566;2022-10-16T07:27:04;10.60;99.90
7676;DHT22;3880;51.464;-2.566;2022-10-16T07:29:32;10.60;99.90
7676;DHT22;3880;51.464;-2.566;2022-10-16T07:32:00;10.60;99.90
7676;DHT22;3880;51.464;-2.566;2022-10-16T07:34:29;10.60;99.90
7676;DHT22;3880;51.464;-2.566;2022-10-16T07:37:01;10.70;99.90
7676;DHT22;3880;51.464;-2.566;2022-10-16T07:39:38;10.80;99.90
7676;DHT22;3880;51.464;-2.566;2022-10-16T07:42:09;10.90;99.90
7676;DHT22;3880;51.464;-2.566;2022-10-16T07:44:38;10.90;99.90
7676;DHT22;3880;51.464;-2.566;2022-10-16T07:47:09;11.00;99.90
7676;DHT22;3880;51.464;-2.566;2022-10-16T07:49:39;11.00;99.90
7676;DHT22;3880;51.464;-2.566;2022-10-16T07:52:09;11.00;99.90
7676;DHT22;3880;51.464;-2.566;2022-10-16T07:54:36;11.20;99.90
7676;DHT22;3880;51.464;-2.566;2022-10-16T07:57:06;11.30;99.90
7676;DHT22;3880;51.464;-2.566;2022-10-16T07:59:34;11.40;99.90
7676;DHT22;3880;51.464;-2.566;2022-10-16T08:02:01;11.50;99.90
7676;DHT22;3880;51.464;-2.566;2022-10-16T08:04:29;12.00;99.90
7676;DHT22;3880;51.464;-2.566;2022-10-16T08:06:56;12.90;99.90
7676;DHT22;3880;51.464;-2.566;2022-10-16T08:09:27;13.90;99.90
7676;DHT22;3880;51.464;-2.566;2022-10-16T08:11:55;15.30;99.90
7676;DHT22;3880;51.464;-2.566;2022-10-16T08:14:22;16.20;99.90
7676;DHT22;3880;51.464;-2.566;2022-10-16T08:16:50;16.40;99.90
7676;DHT22;3880;51.464;-2.566;2022-10-16T08:19:28;16.40;99.90
7676;DHT22;3880;51.464;-2.566;2022-10-16T08:21:59;16.50;99.90
7676;DHT22;3880;51.464;-2.566;2022-10-16T08:24:42;16.70;99.90
7676;DHT22;3880;51.464;-2.566;2022-10-16T08:27:51;17.30;99.90
7676;DHT22;3880;51.464;-2.566;2022-10-16T08:34:31;19.50;99.90
7676;DHT22;3880;51.464;-2.566;2022-10-16T08:40:20;22.00;99.90
7676;DHT22;3880;51.464;-2.566;2022-10-16T08:46:16;23.90;99.90
7676;DHT22;3880;51.464;-2.566;2022-10-16T08:48:51;24.50;99.90
7676;DHT22;3880;51.464;-2.566;2022-10-16T08:51:24;24.20;99.90
7676;DHT22;3880;51.464;-2.566;2022-10-16T08:53:55;24.70;99.90
7676;DHT22;3880;51.464;-2.566;2022-10-16T08:56:25;24.50;99.90
7676;DHT22;3880;51.464;-2.566;2022-10-16T08:58:58;23.50;99.90
7676;DHT22;3880;51.464;-2.566;2022-10-16T09:01:36;24.30;99.90
7676;DHT22;3880;51.464;-2.566;2022-10-16T09:04:22;24.80;99.90
7676;DHT22;3880;51.464;-2.566;2022-10-16T09:06:57;22.60;99.90
7676;DHT22;3880;51.464;-2.566;2022-10-16T09:09:36;20.90;99.90
7676;DHT22;3880;51.464;-2.566;2022-10-16T09:12:15;20.10;99.90
7676;DHT22;3880;51.464;-2.566;2022-10-16T09:14:55;19.70;99.90
7676;DHT22;3880;51.464;-2.566;2022-10-16T09:17:32;20.00;99.90
7676;DHT22;3880;51.464;-2.566;2022-10-16T09:20:14;20.70;99.90
7676;DHT22;3880;51.464;-2.566;2022-10-16T09:22:45;21.60;99.90
7676;DHT22;3880;51.464;-2.566;2022-10-16T09:25:20;21.80;99.90
7676;DHT22;3880;51.464;-2.566;2022-10-16T09:27:54;23.10;99.90
7676;DHT22;3880;51.464;-2.566;2022-10-16T09:30:27;24.50;99.90
7676;DHT22;3880;51.464;-2.566;2022-10-16T09:32:57;24.80;99.90
7676;DHT22;3880;51.464;-2.566;2022-10-16T09:35:31;24.10;99.90
7676;DHT22;3880;51.464;-2.566;2022-10-16T09:37:59;24.60;99.90
7676;DHT22;3880;51.464;-2.566;2022-10-16T09:40:29;24.50;99.90
7676;DHT22;3880;51.464;-2.566;2022-10-16T09:43:07;25.40;99.90
7676;DHT22;3880;51.464;-2.566;2022-10-16T09:45:42;25.20;99.90
7676;DHT22;3880;51.464;-2.566;2022-10-16T09:48:11;22.90;99.90
7676;DHT22;3880;51.464;-2.566;2022-10-16T09:50:39;23.20;99.90
7676;DHT22;3880;51.464;-2.566;2022-10-16T09:53:11;23.30;99.90
7676;DHT22;3880;51.464;-2.566;2022-10-16T09:55:48;24.80;99.90
7676;DHT22;3880;51.464;-2.566;2022-10-16T09:58:18;25.60;99.90
7676;DHT22;3880;51.464;-2.566;2022-10-16T10:00:50;26.60;99.90
7676;DHT22;3880;51.464;-2.566;2022-10-16T10:03:33;26.30;99.90
7676;DHT22;3880;51.464;-2.566;2022-10-16T10:06:06;25.10;99.90
7676;DHT22;3880;51.464;-2.566;2022-10-16T10:08:34;24.90;99.90
7676;DHT22;3880;51.464;-2.566;2022-10-16T10:11:01;26.00;99.90
7676;DHT22;3880;51.464;-2.566;2022-10-16T10:13:29;26.30;99.90
7676;DHT22;3880;51.464;-2.566;2022-10-16T10:15:56;27.10;99.90
7676;DHT22;3880;51.464;-2.566;2022-10-16T10:18:24;27.60;99.90
7676;DHT22;3880;51.464;-2.566;2022-10-16T10:21:02;28.90;99.90
7676;DHT22;3880;51.464;-2.566;2022-10-16T10:23:31;29.90;99.90
7676;DHT22;3880;51.464;-2.566;2022-10-16T10:26:04;31.10;99.90
7676;DHT22;3880;51.464;-2.566;2022-10-16T10:28:47;31.30;97.70
7676;DHT22;3880;51.464;-2.566;2022-10-16T10:31:23;30.80;96.20
7676;DHT22;3880;51.464;-2.566;2022-10-16T10:33:57;30.50;96.80
7676;DHT22;3880;51.464;-2.566;2022-10-16T10:36:34;30.90;96.30
7676;DHT22;3880;51.464;-2.566;2022-10-16T10:39:07;30.80;96.50
7676;DHT22;3880;51.464;-2.566;2022-10-16T10:42:00;29.60;95.70
7676;DHT22;3880;51.464;-2.566;2022-10-16T10:47:38;30.00;94.90
7676;DHT22;3880;51.464;-2.566;2022-10-16T10:50:18;29.60;95.10
7676;DHT22;3880;51.464;-2.566;2022-10-16T10:52:58;27.30;95.70
7676;DHT22;3880;51.464;-2.566;2022-10-16T10:55:32;27.10;96.30
7676;DHT22;3880;51.464;-2.566;2022-10-16T10:58:12;27.30;95.20
7676;DHT22;3880;51.464;-2.566;2022-10-16T11:00:49;26.80;94.90
7676;DHT22;3880;51.464;-2.566;2022-10-16T11:03:31;26.30;96.70
7676;DHT22;3880;51.464;-2.566;2022-10-16T11:06:05;26.50;97.20
7676;DHT22;3880;51.464;-2.566;2022-10-16T11:08:35;25.90;96.50
7676;DHT22;3880;51.464;-2.566;2022-10-16T11:11:06;26.00;96.50
7676;DHT22;3880;51.464;-2.566;2022-10-16T11:13:38;26.60;96.50
7676;DHT22;3880;51.464;-2.566;2022-10-16T11:16:13;27.80;95.50
7676;DHT22;3880;51.464;-2.566;2022-10-16T11:18:48;27.10;95.90
7676;DHT22;3880;51.464;-2.566;2022-10-16T11:21:19;27.80;95.00
7676;DHT22;3880;51.464;-2.566;2022-10-16T11:23:53;28.30;94.50
7676;DHT22;3880;51.464;-2.566;2022-10-16T11:26:26;27.00;95.10
7676;DHT22;3880;51.464;-2.566;2022-10-16T11:28:55;26.40;94.60
7676;DHT22;3880;51.464;-2.566;2022-10-16T11:31:28;26.30;96.00
7676;DHT22;3880;51.464;-2.566;2022-10-16T11:34:04;27.00;94.60
7676;DHT22;3880;51.464;-2.566;2022-10-16T11:36:36;26.40;94.70
7676;DHT22;3880;51.464;-2.566;2022-10-16T11:39:16;26.10;94.90
7676;DHT22;3880;51.464;-2.566;2022-10-16T11:41:48;26.60;94.60
7676;DHT22;3880;51.464;-2.566;2022-10-16T11:44:37;26.60;94.50
7676;DHT22;3880;51.464;-2.566;2022-10-16T11:47:15;26.20;95.10
7676;DHT22;3880;51.464;-2.566;2022-10-16T11:49:50;26.00;95.00
7676;DHT22;3880;51.464;-2.566;2022-10-16T11:52:23;26.90;95.30
7676;DHT22;3880;51.464;-2.566;2022-10-16T11:54:56;27.60;94.50
7676;DHT22;3880;51.464;-2.566;2022-10-16T11:57:31;29.00;92.70
7676;DHT22;3880;51.464;-2.566;2022-10-16T12:00:05;26.10;93.70
7676;DHT22;3880;51.464;-2.566;2022-10-16T12:02:48;25.10;95.00
7676;DHT22;3880;51.464;-2.566;2022-10-16T12:05:24;25.00;96.50
7676;DHT22;3880;51.464;-2.566;2022-10-16T12:08:02;25.60;96.20
7676;DHT22;3880;51.464;-2.566;2022-10-16T12:10:31;26.20;94.10
7676;DHT22;3880;51.464;-2.566;2022-10-16T12:13:02;23.60;95.50
7676;DHT22;3880;51.464;-2.566;2022-10-16T12:15:31;22.80;96.90
7676;DHT22;3880;51.464;-2.566;2022-10-16T12:17:59;22.10;98.40
7676;DHT22;3880;51.464;-2.566;2022-10-16T12:20:30;22.80;98.60
7676;DHT22;3880;51.464;-2.566;2022-10-16T12:22:59;23.70;97.30
7676;DHT22;3880;51.464;-2.566;2022-10-16T12:25:29;24.10;97.30
7676;DHT22;3880;51.464;-2.566;2022-10-16T12:28:02;25.10;96.90
7676;DHT22;3880;51.464;-2.566;2022-10-16T12:30:32;24.50;96.60
7676;DHT22;3880;51.464;-2.566;2022-10-16T12:33:01;25.00;96.50
7676;DHT22;3880;51.464;-2.566;2022-10-16T12:35:34;26.00;95.90
7676;DHT22;3880;51.464;-2.566;2022-10-16T12:38:07;25.70;96.20
7676;DHT22;3880;51.464;-2.566;2022-10-16T12:40:37;26.10;96.00
7676;DHT22;3880;51.464;-2.566;2022-10-16T12:43:26;25.00;96.10
7676;DHT22;3880;51.464;-2.566;2022-10-16T12:46:00;22.80;97.70
7676;DHT22;3880;51.464;-2.566;2022-10-16T12:48:28;22.90;98.20
7676;DHT22;3880;51.464;-2.566;2022-10-16T12:50:57;22.70;98.80
7676;DHT22;3880;51.464;-2.566;2022-10-16T12:53:26;22.30;99.70
7676;DHT22;3880;51.464;-2.566;2022-10-16T12:56:03;22.30;99.90
7676;DHT22;3880;51.464;-2.566;2022-10-16T12:58:47;23.10;99.70
7676;DHT22;3880;51.464;-2.566;2022-10-16T13:01:33;24.60;98.90
7676;DHT22;3880;51.464;-2.566;2022-10-16T13:07:09;24.90;98.90
7676;DHT22;3880;51.464;-2.566;2022-10-16T13:09:52;25.90;98.20
7676;DHT22;3880;51.464;-2.566;2022-10-16T13:12:57;26.20;98.00
7676;DHT22;3880;51.464;-2.566;2022-10-16T13:15:39;25.10;98.40
7676;DHT22;3880;51.464;-2.566;2022-10-16T13:18:13;23.60;99.70
7676;DHT22;3880;51.464;-2.566;2022-10-16T13:20:55;23.40;99.90
7676;DHT22;3880;51.464;-2.566;2022-10-16T13:23:29;23.90;99.90
7676;DHT22;3880;51.464;-2.566;2022-10-16T13:26:06;24.10;99.20
7676;DHT22;3880;51.464;-2.566;2022-10-16T13:28:38;24.20;99.50
7676;DHT22;3880;51.464;-2.566;2022-10-16T13:31:12;24.20;99.20
7676;DHT22;3880;51.464;-2.566;2022-10-16T13:33:46;23.90;99.10
7676;DHT22;3880;51.464;-2.566;2022-10-16T13:36:25;23.80;99.40
7676;DHT22;3880;51.464;-2.566;2022-10-16T13:39:11;24.00;99.00
7676;DHT22;3880;51.464;-2.566;2022-10-16T13:41:39;23.30;98.40
7676;DHT22;3880;51.464;-2.566;2022-10-16T13:44:14;22.50;98.10
7676;DHT22;3880;51.464;-2.566;2022-10-16T13:46:42;21.70;99.10
7676;DHT22;3880;51.464;-2.566;2022-10-16T13:49:14;20.90;99.90
7676;DHT22;3880;51.464;-2.566;2022-10-16T13:51:42;20.80;99.90
7676;DHT22;3880;51.464;-2.566;2022-10-16T13:54:21;20.90;99.90
7676;DHT22;3880;51.464;-2.566;2022-10-16T13:56:48;20.80;99.90
7676;DHT22;3880;51.464;-2.566;2022-10-16T13:59:26;21.20;99.90
7676;DHT22;3880;51.464;-2.566;2022-10-16T14:01:55;21.80;99.90
7676;DHT22;3880;51.464;-2.566;2022-10-16T14:04:24;22.10;99.90
7676;DHT22;3880;51.464;-2.566;2022-10-16T14:06:52;22.40;99.90
7676;DHT22;3880;51.464;-2.566;2022-10-16T14:09:24;22.20;99.90
7676;DHT22;3880;51.464;-2.566;2022-10-16T14:11:53;21.20;99.90
7676;DHT22;3880;51.464;-2.566;2022-10-16T14:14:22;21.20;99.90
7676;DHT22;3880;51.464;-2.566;2022-10-16T14:16:50;21.20;99.90
7676;DHT22;3880;51.464;-2.566;2022-10-16T14:19:21;21.10;99.90
7676;DHT22;3880;51.464;-2.566;2022-10-16T14:21:49;20.80;99.90
7676;DHT22;3880;51.464;-2.566;2022-10-16T14:24:26;20.50;99.90
7676;DHT22;3880;51.464;-2.566;2022-10-16T14:26:54;20.20;99.90
7676;DHT22;3880;51.464;-2.566;2022-10-16T14:29:23;20.10;99.90
7676;DHT22;3880;51.464;-2.566;2022-10-16T14:32:00;20.10;99.90
7676;DHT22;3880;51.464;-2.566;2022-10-16T14:34:30;19.80;99.90
7676;DHT22;3880;51.464;-2.566;2022-10-16T14:37:00;19.90;99.90
7676;DHT22;3880;51.464;-2.566;2022-10-16T14:39:34;19.50;99.90
7676;DHT22;3880;51.464;-2.566;2022-10-16T14:42:02;19.20;99.90
7676;DHT22;3880;51.464;-2.566;2022-10-16T14:44:31;19.10;99.90
7676;DHT22;3880;51.464;-2.566;2022-10-16T14:47:08;19.10;99.90
7676;DHT22;3880;51.464;-2.566;2022-10-16T14:49:36;19.00;99.90
7676;DHT22;3880;51.464;-2.566;2022-10-16T14:52:08;18.90;99.90
7676;DHT22;3880;51.464;-2.566;2022-10-16T14:54:36;18.90;99.90
7676;DHT22;3880;51.464;-2.566;2022-10-16T14:57:04;18.90;99.90
7676;DHT22;3880;51.464;-2.566;2022-10-16T14:59:35;18.90;99.90
7676;DHT22;3880;51.464;-2.566;2022-10-16T15:02:15;18.80;99.90
7676;DHT22;3880;51.464;-2.566;2022-10-16T15:04:43;18.90;99.90
7676;DHT22;3880;51.464;-2.566;2022-10-16T15:07:10;19.00;99.90
7676;DHT22;3880;51.464;-2.566;2022-10-16T15:09:38;18.90;99.90
7676;DHT22;3880;51.464;-2.566;2022-10-16T15:12:05;19.00;99.90
7676;DHT22;3880;51.464;-2.566;2022-10-16T15:14:32;19.10;99.90
7676;DHT22;3880;51.464;-2.566;2022-10-16T15:17:00;19.00;99.90
7676;DHT22;3880;51.464;-2.566;2022-10-16T15:19:28;18.80;99.90
7676;DHT22;3880;51.464;-2.566;2022-10-16T15:21:55;18.70;99.90
7676;DHT22;3880;51.464;-2.566;2022-10-16T15:24:22;18.60;99.90
7676;DHT22;3880;51.464;-2.566;2022-10-16T15:26:50;18.50;99.90
7676;DHT22;3880;51.464;-2.566;2022-10-16T15:29:17;18.30;99.90
7676;DHT22;3880;51.464;-2.566;2022-10-16T15:31:44;18.40;99.90
7676;DHT22;3880;51.464;-2.566;2022-10-16T15:34:13;18.40;99.90
7676;DHT22;3880;51.464;-2.566;2022-10-16T15:36:40;18.60;99.90
7676;DHT22;3880;51.464;-2.566;2022-10-16T15:39:12;18.60;99.90
7676;DHT22;3880;51.464;-2.566;2022-10-16T15:41:40;18.60;99.90
7676;DHT22;3880;51.464;-2.566;2022-10-16T15:44:08;18.60;99.90
7676;DHT22;3880;51.464;-2.566;2022-10-16T15:46:36;18.70;99.90
7676;DHT22;3880;51.464;-2.566;2022-10-16T15:49:03;18.60;99.90
7676;DHT22;3880;51.464;-2.566;2022-10-16T15:51:30;18.80;99.90
7676;DHT22;3880;51.464;-2.566;2022-10-16T15:53:58;18.80;99.90
7676;DHT22;3880;51.464;-2.566;2022-10-16T15:56:27;18.70;99.90
7676;DHT22;3880;51.464;-2.566;2022-10-16T15:58:55;18.60;99.90
7676;DHT22;3880;51.464;-2.566;2022-10-16T16:01:24;18.50;99.90
7676;DHT22;3880;51.464;-2.566;2022-10-16T16:03:53;18.50;99.90
7676;DHT22;3880;51.464;-2.566;2022-10-16T16:06:21;18.20;99.90
7676;DHT22;3880;51.464;-2.566;2022-10-16T16:08:49;18.00;99.90
7676;DHT22;3880;51.464;-2.566;2022-10-16T16:11:17;17.80;99.90
7676;DHT22;3880;51.464;-2.566;2022-10-16T16:13:44;17.90;99.90
7676;DHT22;3880;51.464;-2.566;2022-10-16T16:16:13;17.90;99.90
7676;DHT22;3880;51.464;-2.566;2022-10-16T16:18:43;17.90;99.90
7676;DHT22;3880;51.464;-2.566;2022-10-16T16:21:11;17.90;99.90
7676;DHT22;3880;51.464;-2.566;2022-10-16T16:23:38;17.90;99.90
7676;DHT22;3880;51.464;-2.566;2022-10-16T16:26:08;17.90;99.90
7676;DHT22;3880;51.464;-2.566;2022-10-16T16:28:38;18.00;99.90
7676;DHT22;3880;51.464;-2.566;2022-10-16T16:31:05;17.70;99.90
7676;DHT22;3880;51.464;-2.566;2022-10-16T16:33:32;17.70;99.90
7676;DHT22;3880;51.464;-2.566;2022-10-16T16:36:02;17.60;99.90
7676;DHT22;3880;51.464;-2.566;2022-10-16T16:38:32;17.40;99.90